Time;durP1;ratioP1;P1;durP2;ratioP2;P2;SDS_P1;SDS_P2;PMS_P1;PMS_P2;Temp;Humidity;BMP_temperature;BMP_pressure;BME280_temperature;BME280_humidity;BME280_pressure;Samples;Min_cycle;Max_cycle;Signal;HPM_P1;HPM_P2
2023/09/25 00:01:46;;;;;;;4.40;2.40;;;11.30;99.90;;;;;;4868453;29;20270;-63
2023/09/25 00:04:14;;;;;;;3.07;2.73;;;11.20;99.90;;;;;;4873075;29;20201;-62
2023/09/25 00:06:41;;;;;;;5.00;2.60;;;11.20;99.90;;;;;;4869129;29;20285;-62
2023/09/25 00:09:10;;;;;;;3.07;2.43;;;11.10;99.90;;;;;;4855006;29;20201;-63
2023/09/25 00:11:37;;;;;;;2.73;2.40;;;11.10;99.90;;;;;;4878348;29;20201;-63
2023/09/25 00:14:05;;;;;;;2.67;2.17;;;11.10;99.90;;;;;;4889200;29;20305;-63
2023/09/25 00:16:32;;;;;;;4.43;2.87;;;11.10;99.90;;;;;;4878162;29;20236;-63
2023/09/25 00:18:59;;;;;;;5.60;2.53;;;11.10;99.90;;;;;;4876836;29;20202;-63
2023/09/25 00:21:26;;;;;;;3.70;2.67;;;11.10;99.90;;;;;;4873196;29;20198;-63
2023/09/25 00:23:53;;;;;;;3.13;2.60;;;11.10;99.90;;;;;;4880751;29;20217;-61
2023/09/25 00:26:20;;;;;;;4.10;3.00;;;11.20;99.90;;;;;;4874642;29;20217;-62
2023/09/25 00:28:51;;;;;;;4.27;2.73;;;11.20;99.90;;;;;;4868686;29;20190;-62
2023/09/25 00:31:21;;;;;;;4.47;2.23;;;11.20;99.90;;;;;;4886491;29;20208;-65
2023/09/25 00:33:48;;;;;;;4.07;2.50;;;11.10;99.90;;;;;;4868029;29;20221;-63
2023/09/25 00:36:15;;;;;;;3.80;2.30;;;11.20;99.90;;;;;;4869488;29;20225;-63
2023/09/25 00:38:42;;;;;;;3.77;2.43;;;11.10;99.90;;;;;;4868398;29;20201;-65
2023/09/25 00:41:09;;;;;;;5.83;3.37;;;11.10;99.90;;;;;;4886123;29;20209;-64
2023/09/25 00:43:36;;;;;;;3.20;2.80;;;11.00;99.90;;;;;;4867674;29;20198;-64
2023/09/25 00:46:03;;;;;;;3.37;2.80;;;10.90;99.90;;;;;;4876623;29;20253;-64
2023/09/25 00:48:30;;;;;;;2.60;2.40;;;11.00;99.90;;;;;;4885072;29;20678;-63
2023/09/25 00:51:00;;;;;;;4.07;2.80;;;10.90;99.90;;;;;;4873505;29;20202;-63
2023/09/25 00:53:29;;;;;;;3.43;2.70;;;10.90;99.90;;;;;;4868864;29;20229;-63
2023/09/25 00:55:57;;;;;;;3.17;2.67;;;10.80;99.90;;;;;;4883696;29;20206;-68
2023/09/25 00:58:27;;;;;;;3.50;2.27;;;10.80;99.90;;;;;;4869468;29;20212;-67
2023/09/25 01:00:55;;;;;;;5.60;2.77;;;10.80;99.90;;;;;;4867824;29;20298;-67
2023/09/25 01:03:22;;;;;;;4.67;2.87;;;10.80;99.90;;;;;;4869038;29;20205;-66
2023/09/25 01:05:50;;;;;;;4.43;2.53;;;10.70;99.90;;;;;;4869927;29;20454;-68
2023/09/25 01:08:17;;;;;;;3.77;2.70;;;10.70;99.90;;;;;;4866537;29;20293;-62
2023/09/25 01:10:44;;;;;;;4.07;2.43;;;10.70;99.90;;;;;;4865208;29;20728;-64
2023/09/25 01:13:11;;;;;;;2.80;2.30;;;10.70;99.90;;;;;;4864929;29;20203;-66
2023/09/25 01:15:38;;;;;;;6.80;3.00;;;10.80;99.90;;;;;;4866329;29;20242;-62
2023/09/25 01:18:07;;;;;;;4.17;2.83;;;10.80;99.90;;;;;;4855826;29;20229;-62
2023/09/25 01:20:36;;;;;;;3.43;2.70;;;10.70;99.90;;;;;;4873936;29;20688;-62
2023/09/25 01:23:03;;;;;;;3.67;2.60;;;10.70;99.90;;;;;;4873158;29;20711;-61
2023/09/25 01:25:30;;;;;;;5.10;2.80;;;10.70;99.90;;;;;;4855954;29;20322;-62
2023/09/25 01:27:57;;;;;;;4.10;2.60;;;10.60;99.90;;;;;;4843704;29;20820;-61
2023/09/25 01:30:24;;;;;;;5.90;2.53;;;10.60;99.90;;;;;;4856557;29;20277;-71
2023/09/25 01:32:52;;;;;;;3.10;2.77;;;10.50;99.90;;;;;;4861212;29;20582;-67
2023/09/25 01:35:23;;;;;;;3.37;2.60;;;10.50;99.90;;;;;;4870546;29;20293;-61
2023/09/25 01:37:55;;;;;;;3.53;2.93;;;10.40;99.90;;;;;;4859656;29;20607;-61
2023/09/25 01:40:21;;;;;;;3.23;2.70;;;10.40;99.90;;;;;;4851553;29;20206;-61
2023/09/25 01:42:48;;;;;;;3.03;2.67;;;10.30;99.90;;;;;;4864609;29;20602;-61
2023/09/25 01:45:18;;;;;;;2.97;2.53;;;10.20;99.90;;;;;;4878369;29;20202;-61
2023/09/25 01:47:50;;;;;;;2.67;2.40;;;10.20;99.90;;;;;;4870900;29;20202;-62
2023/09/25 01:50:26;;;;;;;3.00;2.57;;;10.20;99.90;;;;;;4858781;29;20206;-61
2023/09/25 01:52:57;;;;;;;3.63;2.37;;;10.20;99.90;;;;;;4875917;29;20564;-61
2023/09/25 01:55:31;;;;;;;3.20;2.33;;;10.20;99.90;;;;;;4872087;29;20233;-61
2023/09/25 01:57:59;;;;;;;3.90;2.70;;;10.20;99.90;;;;;;4876521;29;20215;-61
2023/09/25 02:04:27;;;;;;;2.30;2.10;;;10.10;99.90;;;;;;4877499;29;20268;-61
2023/09/25 02:06:55;;;;;;;5.50;2.20;;;10.10;99.90;;;;;;4875773;29;20703;-65
2023/09/25 02:09:22;;;;;;;4.30;2.33;;;10.10;99.90;;;;;;4869954;29;20210;-64
2023/09/25 02:11:49;;;;;;;7.87;3.00;;;10.00;99.90;;;;;;4874087;29;20226;-62
2023/09/25 02:14:16;;;;;;;2.87;2.40;;;10.00;99.90;;;;;;4866897;29;20234;-62
2023/09/25 02:16:43;;;;;;;3.93;2.40;;;10.00;99.90;;;;;;4848975;29;20230;-62
2023/09/25 02:19:11;;;;;;;4.57;3.17;;;10.00;99.90;;;;;;4845172;29;20601;-72
2023/09/25 02:21:39;;;;;;;3.77;2.83;;;10.00;99.90;;;;;;4857205;29;20206;-62
2023/09/25 02:24:06;;;;;;;3.00;2.40;;;9.90;99.90;;;;;;4839887;29;20694;-64
2023/09/25 02:26:33;;;;;;;2.97;2.67;;;9.90;99.90;;;;;;4822632;29;20210;-83
2023/09/25 02:29:00;;;;;;;2.93;2.23;;;9.90;99.90;;;;;;4837892;29;20413;-68
2023/09/25 02:31:27;;;;;;;6.30;2.40;;;9.90;99.90;;;;;;4851041;29;20248;-64
2023/09/25 02:33:54;;;;;;;3.50;3.20;;;9.90;99.90;;;;;;4860505;29;20232;-64
2023/09/25 02:36:21;;;;;;;3.00;2.70;;;9.90;99.90;;;;;;4847204;29;20250;-65
2023/09/25 02:38:49;;;;;;;2.83;2.43;;;9.80;99.90;;;;;;4845875;29;20231;-64
2023/09/25 02:41:16;;;;;;;3.80;2.67;;;9.80;99.90;;;;;;4859462;29;20198;-65
2023/09/25 02:43:43;;;;;;;3.43;2.60;;;9.80;99.90;;;;;;4847926;29;20273;-64
2023/09/25 02:46:11;;;;;;;3.10;2.50;;;9.80;99.90;;;;;;4853355;29;20214;-64
2023/09/25 02:48:38;;;;;;;6.27;2.70;;;9.70;99.90;;;;;;4867335;29;20640;-65
2023/09/25 02:51:05;;;;;;;3.20;2.63;;;9.80;99.90;;;;;;4845835;29;20680;-65
2023/09/25 02:53:32;;;;;;;4.67;2.80;;;9.70;99.90;;;;;;4859963;29;20629;-66
2023/09/25 02:55:59;;;;;;;3.47;2.70;;;9.70;99.90;;;;;;4840397;29;20227;-66
2023/09/25 02:58:26;;;;;;;3.00;2.50;;;9.70;99.90;;;;;;4856050;29;20537;-66
2023/09/25 03:00:53;;;;;;;3.47;2.73;;;9.70;99.90;;;;;;4853943;29;20222;-66
2023/09/25 03:03:20;;;;;;;8.33;2.53;;;9.70;99.90;;;;;;4836984;29;20745;-70
2023/09/25 03:05:47;;;;;;;2.60;2.40;;;9.70;99.90;;;;;;4814374;29;20207;-75
2023/09/25 03:08:14;;;;;;;6.03;2.80;;;9.70;99.90;;;;;;4847953;29;20206;-65
2023/09/25 03:10:41;;;;;;;4.07;2.57;;;9.60;99.90;;;;;;4842144;29;20296;-65
2023/09/25 03:13:08;;;;;;;5.10;3.00;;;9.60;99.90;;;;;;4847048;29;20201;-65
2023/09/25 03:15:34;;;;;;;2.93;2.10;;;9.60;99.90;;;;;;4870095;29;20715;-61
2023/09/25 03:18:02;;;;;;;5.63;2.57;;;9.60;99.90;;;;;;4871003;29;20209;-63
2023/09/25 03:20:29;;;;;;;3.03;2.40;;;9.50;99.90;;;;;;4868785;29;20249;-61
2023/09/25 03:22:57;;;;;;;3.77;2.37;;;9.50;99.90;;;;;;4861070;29;20678;-65
2023/09/25 03:25:24;;;;;;;2.57;2.37;;;9.60;99.90;;;;;;4850629;29;20267;-67
2023/09/25 03:27:51;;;;;;;3.67;2.87;;;9.50;99.90;;;;;;4856804;29;20221;-65
2023/09/25 03:30:18;;;;;;;4.67;3.20;;;9.50;99.90;;;;;;4856065;29;20216;-65
2023/09/25 03:32:45;;;;;;;4.37;2.90;;;9.60;99.90;;;;;;4858608;29;20659;-66
2023/09/25 03:35:14;;;;;;;3.07;2.70;;;9.50;99.90;;;;;;4854003;29;20217;-76
2023/09/25 03:37:41;;;;;;;3.47;2.70;;;9.50;99.90;;;;;;4877050;29;20197;-65
2023/09/25 03:40:10;;;;;;;3.90;2.90;;;9.50;99.90;;;;;;4860292;29;20208;-66
2023/09/25 03:42:43;;;;;;;3.10;2.73;;;9.50;99.90;;;;;;4866887;29;20580;-66
2023/09/25 03:45:10;;;;;;;3.97;2.90;;;9.50;99.90;;;;;;4876720;29;20201;-70
2023/09/25 03:47:37;;;;;;;3.00;2.57;;;9.50;99.90;;;;;;4874589;29;20297;-66
2023/09/25 03:50:04;;;;;;;2.90;2.20;;;9.40;99.90;;;;;;4858620;29;20300;-67
2023/09/25 03:52:31;;;;;;;4.00;2.77;;;9.50;99.90;;;;;;4861350;29;20349;-62
2023/09/25 03:54:58;;;;;;;6.87;2.90;;;9.40;99.90;;;;;;4854523;29;20221;-65
2023/09/25 03:57:25;;;;;;;3.13;2.83;;;9.30;99.90;;;;;;4855925;29;20202;-62
2023/09/25 03:59:52;;;;;;;4.90;2.87;;;9.40;99.90;;;;;;4872876;29;20198;-62
2023/09/25 04:02:19;;;;;;;3.50;2.57;;;9.30;99.90;;;;;;4875731;29;20229;-64
2023/09/25 04:04:46;;;;;;;3.87;3.33;;;9.30;99.90;;;;;;4878974;29;20283;-63
2023/09/25 04:07:13;;;;;;;4.50;2.73;;;9.30;99.90;;;;;;4856901;29;20198;-63
2023/09/25 04:09:40;;;;;;;3.20;2.83;;;9.30;99.90;;;;;;4864821;29;20286;-62
2023/09/25 04:12:08;;;;;;;4.97;2.70;;;9.40;99.90;;;;;;4876050;29;20205;-62
2023/09/25 04:14:36;;;;;;;4.13;3.30;;;9.30;99.90;;;;;;4869562;29;20241;-63
2023/09/25 04:17:03;;;;;;;3.97;3.13;;;9.20;99.90;;;;;;4871840;29;20254;-63
2023/09/25 04:19:31;;;;;;;10.50;5.70;;;9.10;99.90;;;;;;4872932;29;20206;-61
2023/09/25 04:21:59;;;;;;;6.23;3.80;;;9.30;99.90;;;;;;4875537;29;20208;-65
2023/09/25 04:24:26;;;;;;;4.90;3.97;;;9.30;99.90;;;;;;4861789;29;20274;-61
2023/09/25 04:26:54;;;;;;;10.17;5.93;;;9.30;99.90;;;;;;4864862;29;20257;-64
2023/09/25 04:29:21;;;;;;;6.80;3.90;;;9.40;99.90;;;;;;4874253;29;20210;-71
2023/09/25 04:31:49;;;;;;;7.33;4.03;;;9.40;99.90;;;;;;4871543;29;20193;-65
2023/09/25 04:34:16;;;;;;;6.10;3.20;;;9.30;99.90;;;;;;4857802;29;20212;-65
2023/09/25 04:36:45;;;;;;;4.80;3.63;;;9.10;99.90;;;;;;4862189;29;20225;-67
2023/09/25 04:39:16;;;;;;;5.27;3.53;;;9.10;99.90;;;;;;4865190;29;20281;-67
2023/09/25 04:41:47;;;;;;;9.13;3.97;;;9.10;99.90;;;;;;4870536;29;20711;-66
2023/09/25 04:44:15;;;;;;;9.23;6.33;;;9.10;99.90;;;;;;4850515;29;20210;-63
2023/09/25 04:46:42;;;;;;;7.67;4.97;;;9.10;99.90;;;;;;4875018;29;20190;-61
2023/09/25 04:49:09;;;;;;;3.43;3.10;;;9.10;99.90;;;;;;4863418;29;20703;-60
2023/09/25 04:51:36;;;;;;;5.00;2.90;;;9.20;99.90;;;;;;4865295;29;20659;-61
2023/09/25 04:54:03;;;;;;;5.30;3.80;;;9.10;99.90;;;;;;4885487;29;20287;-61
2023/09/25 04:56:30;;;;;;;7.80;4.23;;;9.10;99.90;;;;;;4874242;29;20221;-61
2023/09/25 04:58:57;;;;;;;5.90;3.50;;;9.20;99.90;;;;;;4871669;29;20193;-70
2023/09/25 05:01:24;;;;;;;9.17;4.80;;;9.20;99.90;;;;;;4866232;29;20189;-62
2023/09/25 05:03:51;;;;;;;6.67;4.07;;;9.10;99.90;;;;;;4872602;29;20273;-62
2023/09/25 05:06:19;;;;;;;4.43;3.10;;;9.10;99.90;;;;;;4871237;29;20780;-61
2023/09/25 05:08:46;;;;;;;3.93;2.97;;;8.90;99.90;;;;;;4859527;29;20671;-62
2023/09/25 05:11:14;;;;;;;3.93;2.80;;;8.80;99.90;;;;;;4848518;29;20241;-62
2023/09/25 05:13:41;;;;;;;3.93;3.10;;;8.80;99.90;;;;;;4876900;29;20217;-65
2023/09/25 05:16:08;;;;;;;5.47;3.53;;;8.90;99.90;;;;;;4870571;29;20217;-65
2023/09/25 05:18:35;;;;;;;7.60;3.17;;;8.90;99.90;;;;;;4864510;29;20198;-62
2023/09/25 05:21:02;;;;;;;4.53;3.17;;;8.90;99.90;;;;;;4869413;29;20241;-63
2023/09/25 05:23:31;;;;;;;4.47;3.13;;;9.00;99.90;;;;;;4877515;29;20253;-61
2023/09/25 05:25:59;;;;;;;3.50;2.83;;;9.00;99.90;;;;;;4855330;29;20206;-62
2023/09/25 05:28:26;;;;;;;5.17;3.43;;;9.00;99.90;;;;;;4857625;29;20662;-61
2023/09/25 05:30:54;;;;;;;4.47;3.37;;;9.00;99.90;;;;;;4873391;29;20239;-61
2023/09/25 05:33:21;;;;;;;5.50;3.23;;;9.10;99.90;;;;;;4868980;29;20276;-62
2023/09/25 05:35:49;;;;;;;4.10;3.17;;;9.20;99.90;;;;;;4857391;29;20240;-63
2023/09/25 05:38:18;;;;;;;4.73;3.97;;;9.40;99.90;;;;;;4855514;29;20679;-62
2023/09/25 05:40:46;;;;;;;5.17;3.60;;;9.50;99.90;;;;;;4855218;29;20604;-66
2023/09/25 05:43:13;;;;;;;4.33;3.40;;;9.60;99.90;;;;;;4870204;29;20198;-62
2023/09/25 05:45:40;;;;;;;3.87;3.47;;;9.70;99.90;;;;;;4851191;29;20202;-62
2023/09/25 05:48:09;;;;;;;4.83;3.30;;;9.80;99.90;;;;;;4870344;29;20195;-62
2023/09/25 05:50:36;;;;;;;5.07;3.87;;;10.00;99.90;;;;;;4871124;29;20285;-62
2023/09/25 05:53:04;;;;;;;18.40;6.43;;;10.70;99.90;;;;;;4875263;29;20201;-63
2023/09/25 05:55:31;;;;;;;8.80;5.13;;;12.50;99.90;;;;;;4880690;29;20832;-64
2023/09/25 05:57:59;;;;;;;7.13;3.53;;;14.10;99.90;;;;;;4868847;29;20186;-62
2023/09/25 06:00:26;;;;;;;4.10;3.00;;;14.80;99.90;;;;;;4852027;29;20209;-63
2023/09/25 06:02:53;;;;;;;2.73;1.87;;;14.60;99.90;;;;;;4872006;29;20452;-63
2023/09/25 06:05:20;;;;;;;3.93;2.63;;;14.50;99.90;;;;;;4860901;29;20615;-69
2023/09/25 06:07:47;;;;;;;2.33;2.13;;;14.80;99.90;;;;;;4854789;29;20212;-69
2023/09/25 06:10:17;;;;;;;8.50;2.63;;;15.20;99.90;;;;;;4873460;29;20251;-67
2023/09/25 06:12:44;;;;;;;3.83;2.90;;;15.80;99.90;;;;;;4865236;29;20544;-70
2023/09/25 06:15:11;;;;;;;2.65;2.45;;;16.50;99.90;;;;;;4866312;29;20296;-69
2023/09/25 06:17:40;;;;;;;2.50;2.03;;;16.60;99.90;;;;;;4867141;29;20285;-73
2023/09/25 06:20:15;;;;;;;4.80;2.72;;;16.20;99.90;;;;;;4870042;29;20234;-69
2023/09/25 06:22:44;;;;;;;2.38;2.17;;;16.60;99.90;;;;;;4877954;29;20269;-69
2023/09/25 06:25:17;;;;;;;2.50;2.30;;;16.50;99.90;;;;;;4878917;29;20204;-71
2023/09/25 06:27:46;;;;;;;2.40;1.95;;;16.60;99.90;;;;;;4874504;29;20298;-69
2023/09/25 06:30:14;;;;;;;2.92;2.47;;;17.70;99.90;;;;;;4892922;29;20197;-69
2023/09/25 06:32:41;;;;;;;2.50;2.20;;;17.80;99.90;;;;;;4877133;29;20218;-68
2023/09/25 06:35:09;;;;;;;2.30;2.00;;;18.40;99.90;;;;;;4873411;29;20198;-69
2023/09/25 06:37:36;;;;;;;4.70;2.40;;;18.20;99.90;;;;;;4867214;29;20221;-69
2023/09/25 06:40:09;;;;;;;2.35;2.15;;;18.30;99.90;;;;;;4865930;29;20202;-71
2023/09/25 06:42:38;;;;;;;2.85;2.13;;;18.70;99.90;;;;;;4871241;29;20194;-69
2023/09/25 06:45:06;;;;;;;2.70;2.40;;;19.20;99.90;;;;;;4877762;29;20801;-70
2023/09/25 06:47:33;;;;;;;2.45;2.25;;;20.20;99.90;;;;;;4876697;29;20197;-69
2023/09/25 06:50:01;;;;;;;2.35;2.03;;;19.50;99.90;;;;;;4863395;29;20210;-73
2023/09/25 06:52:28;;;;;;;2.22;2.03;;;19.80;99.90;;;;;;4874102;29;20197;-70
2023/09/25 06:54:56;;;;;;;2.50;2.30;;;20.50;99.90;;;;;;4878342;29;20698;-70
2023/09/25 06:57:23;;;;;;;4.28;2.17;;;20.50;99.90;;;;;;4874017;29;20361;-72
2023/09/25 06:59:50;;;;;;;2.15;1.95;;;22.20;99.90;;;;;;4872505;29;20590;-68
2023/09/25 07:02:18;;;;;;;2.40;2.20;;;21.20;99.90;;;;;;4874171;29;20212;-70
2023/09/25 07:04:47;;;;;;;2.67;2.45;;;20.90;99.90;;;;;;4874088;29;20233;-70
2023/09/25 07:07:14;;;;;;;2.67;2.47;;;21.70;99.90;;;;;;4874147;29;20202;-70
2023/09/25 07:09:42;;;;;;;2.03;1.83;;;23.10;99.90;;;;;;4864777;29;20194;-70
2023/09/25 07:12:12;;;;;;;2.30;2.10;;;21.40;99.90;;;;;;4878857;29;20626;-70
2023/09/25 07:14:40;;;;;;;2.60;2.40;;;21.50;99.90;;;;;;4875926;29;20234;-70
2023/09/25 07:17:07;;;;;;;2.40;2.20;;;21.90;99.90;;;;;;4865832;29;20217;-70
2023/09/25 07:19:34;;;;;;;2.30;1.90;;;21.60;99.90;;;;;;4875532;29;20217;-70
2023/09/25 07:22:01;;;;;;;2.72;2.53;;;22.00;99.90;;;;;;4876877;29;20757;-71
2023/09/25 07:24:28;;;;;;;2.45;2.17;;;22.90;99.90;;;;;;4893405;29;20202;-70
2023/09/25 07:26:55;;;;;;;3.08;2.58;;;21.80;99.90;;;;;;4873123;29;20201;-70
2023/09/25 07:29:22;;;;;;;4.60;2.53;;;20.80;99.90;;;;;;4872253;29;20269;-70
2023/09/25 07:32:07;;;;;;;4.63;2.35;;;19.90;99.90;;;;;;4863600;29;20218;-72
2023/09/25 07:34:34;;;;;;;2.72;2.38;;;20.30;99.90;;;;;;4892206;29;20202;-74
2023/09/25 07:37:04;;;;;;;2.72;2.40;;;20.30;99.90;;;;;;4873743;29;20597;-70
2023/09/25 07:39:39;;;;;;;2.60;2.40;;;19.90;99.90;;;;;;4873353;29;20202;-72
2023/09/25 07:42:07;;;;;;;3.08;2.28;;;20.20;99.90;;;;;;4869489;29;20629;-76
2023/09/25 07:44:35;;;;;;;2.75;2.42;;;21.10;99.90;;;;;;4879920;29;20202;-70
2023/09/25 07:47:06;;;;;;;2.40;2.20;;;21.40;99.90;;;;;;4869032;29;20422;-70
2023/09/25 07:49:40;;;;;;;2.13;1.92;;;22.40;99.90;;;;;;4872187;29;20216;-72
2023/09/25 07:52:17;;;;;;;3.28;2.10;;;24.20;99.90;;;;;;4887783;29;20683;-70
2023/09/25 07:54:51;;;;;;;2.20;2.10;;;23.00;99.90;;;;;;4880521;29;20603;-64
2023/09/25 07:57:20;;;;;;;2.10;1.90;;;23.10;99.90;;;;;;4879148;29;20213;-65
2023/09/25 07:59:50;;;;;;;3.08;2.35;;;24.00;99.90;;;;;;4872252;29;20206;-65
2023/09/25 08:02:19;;;;;;;7.32;2.38;;;22.80;99.90;;;;;;4875969;29;20201;-63
2023/09/25 08:04:50;;;;;;;3.08;2.20;;;23.20;99.90;;;;;;4890384;29;20234;-70
2023/09/25 08:07:18;;;;;;;3.85;2.30;;;23.90;99.90;;;;;;4887461;29;20571;-72
2023/09/25 08:09:46;;;;;;;2.40;2.20;;;25.40;99.90;;;;;;4859879;29;20619;-69
2023/09/25 08:12:13;;;;;;;2.17;1.98;;;26.10;99.90;;;;;;4873795;29;20201;-69
2023/09/25 08:14:40;;;;;;;2.35;2.15;;;25.90;99.90;;;;;;4875281;29;20264;-70
2023/09/25 08:17:08;;;;;;;2.40;2.20;;;24.60;99.90;;;;;;4873536;29;20391;-71
2023/09/25 08:19:36;;;;;;;2.13;1.95;;;24.80;99.90;;;;;;4865913;29;20194;-70
2023/09/25 08:22:03;;;;;;;2.50;2.13;;;23.10;99.90;;;;;;4870809;29;20658;-71
2023/09/25 08:24:30;;;;;;;2.35;2.00;;;24.00;99.90;;;;;;4868889;29;20612;-71
2023/09/25 08:26:57;;;;;;;2.58;2.28;;;24.70;99.90;;;;;;4870755;29;20288;-72
2023/09/25 08:29:24;;;;;;;4.05;2.13;;;24.80;99.90;;;;;;4863309;29;20209;-70
2023/09/25 08:31:53;;;;;;;2.25;1.95;;;23.90;99.90;;;;;;4847889;29;20201;-70
2023/09/25 08:34:21;;;;;;;2.20;2.00;;;22.60;99.90;;;;;;4857323;29;20225;-71
2023/09/25 08:36:48;;;;;;;2.30;2.10;;;21.20;99.90;;;;;;4866226;29;20699;-71
2023/09/25 08:39:17;;;;;;;2.35;2.00;;;20.70;99.90;;;;;;4877505;29;20253;-69
2023/09/25 08:41:45;;;;;;;2.40;2.15;;;20.00;99.90;;;;;;4863392;29;20214;-69
2023/09/25 08:44:14;;;;;;;4.45;2.30;;;21.70;99.90;;;;;;4875654;29;20254;-70
2023/09/25 08:46:42;;;;;;;2.65;2.25;;;25.70;99.90;;;;;;4858743;29;20609;-68
2023/09/25 08:49:09;;;;;;;2.67;2.17;;;27.30;99.90;;;;;;4855115;29;20193;-71
2023/09/25 08:51:39;;;;;;;1.90;1.80;;;27.60;99.90;;;;;;4853135;29;20285;-71
2023/09/25 08:54:07;;;;;;;3.83;2.15;;;27.80;99.90;;;;;;4877916;29;20287;-71
2023/09/25 08:56:34;;;;;;;2.20;2.00;;;26.10;99.90;;;;;;4879835;29;20285;-69
2023/09/25 08:59:04;;;;;;;9.35;2.28;;;26.80;99.90;;;;;;4866816;29;20272;-70
2023/09/25 09:01:32;;;;;;;2.55;2.35;;;26.50;99.90;;;;;;4852730;29;20207;-70
2023/09/25 09:03:59;;;;;;;2.70;1.98;;;27.10;99.90;;;;;;4871661;29;20208;-71
2023/09/25 09:06:27;;;;;;;3.67;2.15;;;27.20;99.90;;;;;;4875287;29;20229;-71
2023/09/25 09:08:56;;;;;;;3.22;2.20;;;25.60;99.90;;;;;;4858069;29;20206;-74
2023/09/25 09:11:23;;;;;;;2.50;2.30;;;26.50;99.90;;;;;;4874197;29;20197;-71
2023/09/25 09:13:50;;;;;;;2.03;1.92;;;27.00;99.90;;;;;;4883524;29;20300;-71
2023/09/25 09:16:19;;;;;;;2.00;1.90;;;28.20;99.90;;;;;;4882474;29;20217;-71
2023/09/25 09:18:46;;;;;;;4.10;2.20;;;30.70;99.90;;;;;;4871636;29;20562;-71
2023/09/25 09:21:26;;;;;;;2.17;2.08;;;29.10;99.90;;;;;;4856171;29;20292;-71
2023/09/25 09:23:56;;;;;;;2.22;2.08;;;28.90;99.90;;;;;;4850600;29;20209;-71
2023/09/25 09:26:25;;;;;;;2.88;2.50;;;30.30;99.90;;;;;;4878547;29;20308;-70
2023/09/25 09:28:56;;;;;;;5.43;2.65;;;28.80;99.90;;;;;;4877516;29;20201;-73
2023/09/25 09:31:25;;;;;;;2.58;2.38;;;27.30;99.90;;;;;;4863597;29;20201;-69
2023/09/25 09:33:56;;;;;;;2.50;2.30;;;28.40;99.90;;;;;;4867948;29;20300;-69
2023/09/25 09:36:23;;;;;;;2.40;2.08;;;29.30;99.90;;;;;;4864332;29;20218;-70
2023/09/25 09:38:53;;;;;;;2.40;2.20;;;28.60;99.90;;;;;;4858564;29;20216;-70
2023/09/25 09:41:21;;;;;;;2.88;2.20;;;26.10;99.90;;;;;;4873242;29;20202;-70
2023/09/25 09:43:48;;;;;;;2.55;2.35;;;25.90;99.90;;;;;;4876067;29;20245;-70
2023/09/25 09:46:16;;;;;;;2.50;2.30;;;25.80;99.90;;;;;;4862330;29;20201;-68
2023/09/25 09:48:46;;;;;;;4.45;2.00;;;25.80;99.90;;;;;;4866487;29;20202;-69
2023/09/25 09:51:18;;;;;;;2.45;2.25;;;26.80;99.90;;;;;;4879087;29;20288;-69
2023/09/25 09:53:45;;;;;;;3.45;2.50;;;26.80;99.90;;;;;;4861422;29;20205;-71
2023/09/25 09:56:15;;;;;;;2.40;2.20;;;26.10;99.90;;;;;;4867018;29;20560;-70
2023/09/25 09:58:44;;;;;;;2.95;2.67;;;26.20;99.90;;;;;;4873797;29;20198;-69
2023/09/25 10:01:12;;;;;;;2.45;2.25;;;26.90;99.90;;;;;;4866768;29;20209;-69
2023/09/25 10:03:39;;;;;;;2.63;2.42;;;28.40;99.90;;;;;;4872796;29;20296;-70
2023/09/25 10:06:10;;;;;;;3.20;2.78;;;27.40;99.90;;;;;;4866248;29;20197;-70
2023/09/25 10:08:37;;;;;;;2.80;2.60;;;26.60;99.90;;;;;;4865972;29;20206;-70
2023/09/25 10:11:16;;;;;;;2.75;2.55;;;26.40;99.90;;;;;;4854526;29;20237;-70
2023/09/25 10:13:43;;;;;;;3.47;2.80;;;27.10;99.90;;;;;;4865549;29;20291;-69
2023/09/25 10:16:12;;;;;;;2.90;2.60;;;28.20;99.90;;;;;;4886482;29;20906;-71
2023/09/25 10:18:41;;;;;;;2.58;2.30;;;31.50;99.90;;;;;;4861311;29;20577;-71
2023/09/25 10:21:16;;;;;;;2.50;2.30;;;29.60;99.90;;;;;;4861305;29;20666;-70
2023/09/25 10:23:48;;;;;;;3.03;2.70;;;30.00;99.90;;;;;;4879386;29;20216;-70
2023/09/25 10:26:21;;;;;;;3.20;2.35;;;31.60;99.90;;;;;;4865725;29;20205;-70
2023/09/25 10:29:14;;;;;;;2.63;2.42;;;29.90;99.90;;;;;;4865583;29;20314;-68
2023/09/25 10:31:46;;;;;;;5.03;2.78;;;29.40;99.90;;;;;;4857153;29;20237;-69
2023/09/25 10:34:12;;;;;;;2.97;2.72;;;30.10;99.90;;;;;;4877926;29;20670;-69
2023/09/25 10:36:42;;;;;;;4.60;2.80;;;29.00;99.90;;;;;;4859979;29;20226;-69
2023/09/25 10:39:13;;;;;;;2.63;2.42;;;29.30;99.90;;;;;;4885541;29;20201;-69
2023/09/25 10:41:42;;;;;;;2.85;2.63;;;28.60;99.90;;;;;;4857151;29;20277;-69
2023/09/25 10:44:10;;;;;;;3.00;2.70;;;30.10;99.90;;;;;;4863136;29;20197;-70
2023/09/25 10:46:37;;;;;;;3.28;2.80;;;27.90;99.90;;;;;;4873405;29;20213;-70
2023/09/25 10:49:06;;;;;;;3.63;2.90;;;28.60;99.90;;;;;;4870993;29;20202;-70
2023/09/25 10:51:33;;;;;;;2.88;2.67;;;29.50;99.90;;;;;;4876127;29;20562;-70
2023/09/25 10:54:02;;;;;;;2.78;2.58;;;26.30;99.90;;;;;;4874875;29;20512;-72
2023/09/25 10:56:30;;;;;;;3.47;2.78;;;27.90;99.90;;;;;;4853615;29;20293;-71
2023/09/25 10:58:57;;;;;;;2.92;2.60;;;28.50;99.90;;;;;;4861249;29;20194;-70
2023/09/25 11:01:27;;;;;;;3.13;2.75;;;27.40;99.90;;;;;;4861238;29;20236;-70
2023/09/25 11:03:57;;;;;;;3.45;2.95;;;28.00;99.90;;;;;;4865534;29;20670;-74
2023/09/25 11:06:25;;;;;;;3.40;2.70;;;26.50;99.90;;;;;;4876300;29;20281;-71
2023/09/25 11:08:59;;;;;;;3.30;2.72;;;25.80;99.90;;;;;;4868935;29;20201;-69
2023/09/25 11:11:27;;;;;;;2.50;2.35;;;27.60;99.90;;;;;;4857778;29;20206;-70
2023/09/25 11:13:54;;;;;;;2.80;2.60;;;28.20;99.90;;;;;;4859436;29;20246;-69
2023/09/25 11:16:23;;;;;;;2.90;2.70;;;27.80;99.90;;;;;;4877384;29;20285;-69
2023/09/25 11:19:07;;;;;;;2.65;2.45;;;26.40;99.90;;;;;;4867495;29;20220;-69
2023/09/25 11:21:34;;;;;;;2.83;2.60;;;25.80;99.90;;;;;;4858913;29;20539;-70
2023/09/25 11:24:05;;;;;;;2.80;2.60;;;26.00;99.90;;;;;;4850851;29;20725;-70
2023/09/25 11:26:36;;;;;;;3.30;2.80;;;26.20;99.90;;;;;;4861224;29;20206;-67
2023/09/25 11:29:10;;;;;;;3.85;2.72;;;26.40;99.90;;;;;;4870299;29;20746;-67
2023/09/25 11:31:38;;;;;;;2.80;2.50;;;25.60;99.90;;;;;;4870533;29;20654;-72
2023/09/25 11:34:26;;;;;;;2.80;2.60;;;25.40;99.90;;;;;;4861445;29;20297;-65
2023/09/25 11:36:54;;;;;;;2.92;2.72;;;25.50;99.80;;;;;;4871567;29;20686;-68
2023/09/25 11:39:21;;;;;;;2.70;2.50;;;25.50;99.30;;;;;;4871878;29;20233;-68
2023/09/25 11:41:48;;;;;;;2.55;2.38;;;25.80;99.20;;;;;;4869974;29;20535;-68
2023/09/25 11:44:15;;;;;;;3.95;2.72;;;26.20;99.10;;;;;;4875428;29;20738;-68
2023/09/25 11:46:42;;;;;;;3.22;2.92;;;24.80;99.70;;;;;;4871056;29;20841;-68
2023/09/25 11:49:10;;;;;;;3.00;2.75;;;24.50;99.90;;;;;;4875639;29;20210;-68
2023/09/25 11:51:39;;;;;;;3.17;2.97;;;24.80;99.90;;;;;;4872111;29;20194;-68
2023/09/25 11:54:06;;;;;;;3.00;2.70;;;25.10;99.90;;;;;;4874916;29;20201;-73
2023/09/25 11:56:33;;;;;;;2.90;2.70;;;24.40;99.90;;;;;;4872498;29;20686;-68
2023/09/25 11:59:00;;;;;;;2.90;2.60;;;24.00;99.80;;;;;;4865525;29;20777;-65
2023/09/25 12:01:28;;;;;;;2.85;2.65;;;24.90;99.90;;;;;;4862203;29;20683;-68
2023/09/25 12:03:55;;;;;;;3.17;2.90;;;24.90;98.90;;;;;;4868966;29;20280;-68
2023/09/25 12:06:26;;;;;;;3.00;2.70;;;24.40;98.50;;;;;;4875003;29;20202;-67
2023/09/25 12:08:55;;;;;;;2.65;2.45;;;23.80;98.30;;;;;;4863730;29;20206;-68
2023/09/25 12:11:22;;;;;;;2.92;2.72;;;24.00;99.80;;;;;;4876738;29;20200;-68
2023/09/25 12:13:49;;;;;;;2.83;2.63;;;24.70;99.90;;;;;;4871990;29;20595;-66
2023/09/25 12:16:17;;;;;;;3.38;3.08;;;24.20;99.60;;;;;;4876909;29;20216;-68
2023/09/25 12:18:45;;;;;;;3.00;2.80;;;24.10;99.40;;;;;;4874199;29;20205;-68
2023/09/25 12:21:13;;;;;;;2.88;2.53;;;23.70;99.90;;;;;;4868243;29;20615;-66
2023/09/25 12:23:41;;;;;;;2.90;2.70;;;23.90;99.90;;;;;;4882932;29;20538;-65
2023/09/25 12:26:11;;;;;;;2.70;2.50;;;23.80;99.90;;;;;;4878828;29;20732;-67
2023/09/25 12:28:38;;;;;;;2.78;2.58;;;24.20;99.90;;;;;;4862683;29;20574;-66
2023/09/25 12:31:05;;;;;;;3.25;3.05;;;24.00;99.90;;;;;;4856662;29;20690;-66
2023/09/25 12:33:33;;;;;;;3.10;2.80;;;24.30;99.90;;;;;;4875250;29;20257;-66
2023/09/25 12:36:00;;;;;;;2.47;2.38;;;24.50;99.90;;;;;;4858940;29;20273;-67
2023/09/25 12:38:27;;;;;;;4.32;2.53;;;24.00;99.90;;;;;;4869360;29;20230;-62
2023/09/25 12:40:54;;;;;;;3.08;2.60;;;23.30;98.60;;;;;;4875257;29;20198;-68
2023/09/25 12:43:23;;;;;;;2.58;2.38;;;23.70;99.90;;;;;;4866030;29;20201;-62
2023/09/25 12:45:51;;;;;;;3.05;2.75;;;23.30;99.70;;;;;;4863391;29;20858;-66
2023/09/25 12:48:19;;;;;;;2.70;2.50;;;23.70;99.90;;;;;;4857694;29;20671;-66
2023/09/25 12:50:48;;;;;;;2.67;2.47;;;24.00;98.00;;;;;;4837561;29;20228;-65
2023/09/25 12:53:17;;;;;;;2.80;2.60;;;23.80;99.90;;;;;;4870301;29;20781;-66
2023/09/25 12:55:44;;;;;;;3.22;3.00;;;24.10;99.90;;;;;;4875484;29;20571;-66
2023/09/25 12:58:12;;;;;;;4.68;2.70;;;23.50;99.30;;;;;;4869038;29;20214;-66
2023/09/25 13:00:39;;;;;;;3.20;2.90;;;23.50;97.20;;;;;;4866751;29;20652;-66